Terminal Aerodrome Forecast
Issued by NWS

Home | Current Version | Previous Version | Text Only | Print | Product List | Glossary On
Versions: 1 2 3 4 5 6 7 8 9 10 11 12 13 14 15 16 17 18 19 20 21 22 23 24 25 26 27 28 29 30 31
000
FTUS43 KDVN 021700
TAFBRL
TAF
KBRL 021738Z 0218/0318 19009KT P6SM -RA SCT012 BKN040
      TEMPO 0221/0224 3SM TSRA BR BKN015CB OVC025
     FM030300 25010KT 4SM -SHRA OVC015
     FM030700 30011KT 5SM BR OVC010
     FM031500 29015G23KT P6SM BKN020=

USA.gov is the U.S. government's official web portal to all federal, state and local government web resources and services.